Terminal Aerodrome Forecast
Issued by NWS Binghamton, NY

Home | Current Version | Previous Version | Text Only | Print | Product List | Glossary On
Versions: 1 2 3 4 5 6 7 8 9 10 11 12 13 14 15 16 17 18 19 20 21
000
FTUS41 KBGM 202300 RRA
TAFBGM
TAF
KBGM 202350Z 2100/2124 18010G20KT P6SM SCT035
     FM210500 18010G20KT P6SM OVC012
     FM211200 19010G20KT P6SM OVC025
     FM211400 21015G25KT P6SM SCT025 BKN035 PROB30 2118/2122 3SM
      SHRA BR OVC025
     FM212200 28008KT P6SM SCT015 BKN060=

USA.gov is the U.S. government's official web portal to all federal, state and local government web resources and services.